• Join FlightAware (Why Join?)
  • Login
  • US Flag 
10:19PM EDT


 

Airport Tracker/Info


-or-


 

Live Flight TrackerFlight Track Log ✈ DAL268 ✈ 07-May-2013 ✈ KATL - KJFK

Flight Track Log - Related Links

Times and Time Zones

All times are in EDT time to prevent confusion due to time zone crossing. See the DAL268 flight status page for this flight to view local times or setup timezone preferences in your user account.

Time Position Orientation Groundspeed Altitude Reporting Facility
EDT Latitude Longitude Course Direction KTS MPH feet Rate Location/Type
06:19PM 33.6333 -84.4833 64° Northeast 160 184 3,000  Level Atlanta TRACON
06:20PM 33.6167 -84.5333 248° West 224 258 4,400 1,920 Climbing Atlanta TRACON
06:21PM 33.7145 -84.0199 101° East  Level FlightAware Approximate
06:21PM 33.5500 -84.5833 212° Southwest 287 330 6,700  Level Atlanta TRACON
06:22PM 33.6922 -83.8859 101° East  Level FlightAware Approximate
06:22PM 33.4833 -84.5667 168° South 305 351 9,100  Level Atlanta TRACON
06:23PM 33.6698 -83.7519 101° East  Level FlightAware Approximate
06:23PM 33.4667 -84.4833 103° East 318 366 10,900  Level Atlanta TRACON
06:24PM 33.6558 -83.6192 64° Northeast  Level FlightAware Approximate
06:25PM 33.4706 -84.2456 89° East 361 415 15,600  Level Atlanta Center
06:26PM 33.5144 -84.1408 63° Northeast 350 403 17,900 1,860 Climbing Atlanta Center
06:27PM 33.5583 -84.0314 64° Northeast 350 403 19,400 1,620 Climbing Atlanta Center
06:28PM 33.6064 -83.9192 63° Northeast 360 414 21,200 1,800 Climbing Atlanta Center
06:29PM 33.6311 -83.7894 77° East 383 441 23,000 1,680 Climbing Atlanta Center
06:30PM 33.6558 -83.6619 77° East 390 449 24,600 1,380 Climbing Atlanta Center
06:31PM 33.7014 -83.5394 66° East 397 457 25,800 1,200 Climbing Atlanta Center
06:32PM 33.7489 -83.4167 65° Northeast 395 455 27,000 1,080 Climbing Atlanta Center
06:33PM 33.8025 -83.2939 62° Northeast 403 464 28,000 900 Climbing Atlanta Center
06:34PM 33.8558 -83.1508 66° East 410 472 28,800 660 Climbing Atlanta Center
06:35PM 33.9111 -83.0175 63° Northeast 429 494 29,400 780 Climbing Atlanta Center
06:36PM 33.9619 -82.8817 66° East 440 506 30,400 960 Climbing Atlanta Center
06:37PM 34.0192 -82.7481 63° Northeast 445 512 31,400 720 Climbing Atlanta Center
06:38PM 34.0719 -82.6094 65° Northeast 445 512 31,900 420 Climbing Atlanta Center
06:39PM 34.1244 -82.4731 65° Northeast 445 512 32,300 360 Climbing Atlanta Center
06:40PM 34.1831 -82.3314 63° Northeast 445 512 32,700 300 Climbing Atlanta Center
06:41PM 34.2375 -82.1894 65° Northeast 450 518 33,000 120 Climbing Atlanta Center
06:42PM 34.3019 -82.0547 60° Northeast 450 518 33,000  Level Atlanta Center
06:43PM 34.3667 -81.9225 59° Northeast 455 524 33,000  Level Atlanta Center
06:44PM 34.4353 -81.7872 58° Northeast 460 529 33,000  Level Atlanta Center
06:45PM 34.4994 -81.6544 60° Northeast 460 529 33,000  Level Atlanta Center
06:46PM 34.5656 -81.5189 59° Northeast 460 529 33,000  Level Atlanta Center
06:47PM 34.6317 -81.3806 60° Northeast 460 529 33,000  Level Atlanta Center
06:48PM 34.6975 -81.2494 59° Northeast 459 528 33,000  Level Atlanta Center
06:49PM 34.7653 -81.1158 58° Northeast 464 534 33,000  Level Atlanta Center
06:50PM 34.8308 -80.9794 60° Northeast 469 540 33,000  Level Atlanta Center
06:51PM 34.9025 -80.8400 58° Northeast 469 540 33,000  Level Atlanta Center
06:52PM 34.9678 -80.7008 60° Northeast 477 549 33,000  Level Atlanta Center
06:53PM 35.0347 -80.5636 59° Northeast 477 549 33,000  Level Atlanta Center
06:54PM 35.0997 -80.4264 60° Northeast 477 549 33,000  Level Atlanta Center
06:56PM 35.1986 -80.2181 60° Northeast 497 572 33,000  Level Washington Center
06:57PM 35.2733 -80.0644 59° Northeast 485 558 33,000  Level Washington Center
06:58PM 35.3386 -79.9308 59° Northeast 466 536 33,000  Level Washington Center
06:59PM 35.4042 -79.7889 60° Northeast 466 536 33,000  Level Washington Center
07:00PM 35.4958 -79.6739 46° Northeast 471 542 33,000 -180 Level Washington Center
07:01PM 35.5894 -79.5611 44° Northeast 466 536 32,700 -1,020 Descending Washington Center
07:02PM 35.6831 -79.4458 45° Northeast 466 536 31,000 -900 Descending Washington Center
07:03PM 35.7742 -79.3375 44° Northeast 456 525 31,000  Level Washington Center
07:04PM 35.8672 -79.2267 44° Northeast 456 525 31,000  Level Washington Center
07:05PM 35.9603 -79.1178 43° Northeast 456 525 31,000  Level Washington Center
07:06PM 36.0531 -79.0089 43° Northeast 456 525 31,000  Level Washington Center
07:07PM 36.1458 -78.8997 44° Northeast 456 525 31,000  Level Washington Center
07:08PM 36.2242 -78.7769 52° Northeast 451 519 31,000  Level Washington Center
07:09PM 36.2883 -78.6406 60° Northeast 451 519 31,000  Level Washington Center
07:10PM 36.3544 -78.5011 59° Northeast 456 525 31,000  Level Washington Center
07:11PM 36.4181 -78.3667 60° Northeast 456 525 31,000  Level Washington Center
07:12PM 36.4797 -78.2294 61° Northeast 451 519 31,000  Level Washington Center
07:13PM 36.5389 -78.0969 61° Northeast 451 519 31,000  Level Washington Center
07:14PM 36.6000 -77.9617 61° Northeast 451 519 31,000 60 Level Washington Center
07:15PM 36.6608 -77.8289 60° Northeast 446 513 31,200 300 Climbing Washington Center
07:16PM 36.7194 -77.7064 59° Northeast 446 513 31,700 840 Climbing Washington Center
07:17PM 36.7783 -77.5678 62° Northeast 446 513 32,900 600 Climbing Washington Center
07:18PM 36.8408 -77.4344 60° Northeast 446 513 33,000  Climbing Washington Center
07:19PM 36.9014 -77.2983 61° Northeast 452 520 33,000  Level Washington Center
07:20PM 36.9636 -77.1619 60° Northeast 446 513 33,000  Level Washington Center
07:21PM 37.0175 -77.0250 64° Northeast 446 513 33,000  Level Washington Center
07:22PM 37.0256 -76.8744 86° East 433 498 33,000  Level Washington Center
07:23PM 37.0394 -76.7211 83° East 433 498 33,000  Level Washington Center
07:24PM 37.1219 -76.6000 49° Northeast 433 498 33,000  Level Washington Center
07:25PM 37.2250 -76.4786 43° Northeast 438 504 33,000  Level Washington Center
07:26PM 37.3178 -76.3647 44° Northeast 450 518 33,000  Level Washington Center
07:27PM 37.4100 -76.2533 44° Northeast 450 518 33,000  Level Washington Center
07:28PM 37.4961 -76.1572 42° Northeast 460 529 33,000  Level Washington Center
07:29PM 37.5947 -76.0400 43° Northeast 454 522 33,000  Level Washington Center
07:30PM 37.6867 -75.9278 44° Northeast 449 517 33,000 -60 Level Washington Center
07:31PM 37.7789 -75.8125 45° Northeast 449 517 32,900  Descending Washington Center
07:32PM 37.8706 -75.6969 45° Northeast 454 522 33,000  Climbing Washington Center
07:33PM 37.9625 -75.5864 43° Northeast 454 522 33,000  Level Washington Center
07:34PM 38.0542 -75.4758 44° Northeast 454 522 33,000  Level Washington Center
07:35PM 38.1689 -75.4042 26° Northeast 449 517 33,000 -60 Level Washington Center
07:36PM 38.2833 -75.3297 27° Northeast 449 517 32,900 240 Descending Washington Center
07:37PM 38.3936 -75.2525 29° Northeast 449 517 33,600 540 Climbing Washington Center
07:38PM 38.5061 -75.1831 26° Northeast 449 517 34,000 420 Climbing Washington Center
07:39PM 38.6206 -75.1161 25° Northeast 444 511 34,500 420 Climbing Washington Center
07:40PM 38.7286 -75.0408 29° Northeast 439 505 34,900 240 Climbing Washington Center
07:41PM 38.8408 -74.9706 26° Northeast 445 512 35,000  Climbing Washington Center
07:42PM 38.9550 -74.9003 26° Northeast 450 518 34,900 -1,260 Descending Washington Center
07:43PM 39.0692 -74.8269 27° Northeast 450 518 32,600 -2,700 Descending Washington Center
07:44PM 39.1728 -74.7294 36° Northeast 445 512 29,500 -2,880 Descending Washington Center
07:45PM 39.2625 -74.6242 42° Northeast 452 520 27,000 -2,460 Descending New York Center
07:46PM 39.3489 -74.5347 39° Northeast 465 535 24,800 -2,520 Descending New York Center
07:47PM 39.4483 -74.4272 40° Northeast 437 503 22,100 -2,700 Descending New York Center
07:48PM 39.5303 -74.3344 41° Northeast 408 470 19,400 -2,040 Descending New York Center
07:49PM 39.6058 -74.2522 40° Northeast 395 455 18,000 -1,680 Descending New York Center
07:50PM 39.6942 -74.1539 41° Northeast 383 441 16,100 -1,620 Descending New York Center
07:51PM 39.7714 -74.0714 39° Northeast 365 420 14,900 -1,200 Descending New York Center
07:52PM 39.8381 -73.9989 40° Northeast 354 407 13,700 -1,080 Descending New York Center
07:53PM 39.9231 -73.9403 28° Northeast 344 396 12,800 -1,200 Descending New York Center
07:54PM 40.0100 -73.8875 25° Northeast 319 367 11,400 -1,380 Descending New York Center
07:55PM 40.0861 -73.8447 23° Northeast 303 349 10,100 -1,440 Descending New York Center
07:55PM 40.1333 -73.8167 24° Northeast 296 341 9,000 -1,560 Descending New York TRACON
07:56PM 40.2167 -73.7667 25° Northeast 289 333 7,600 -1,440 Descending New York TRACON
07:57PM 40.2833 -73.7333 21° North 282 325 6,200 -1,440 Descending New York TRACON
07:58PM 40.3500 -73.7833 330° Northwest 284 327 4,800 -1,500 Descending New York TRACON
07:59PM 40.4000 -73.8667 308° West 281 323 3,200 -900 Descending New York TRACON
08:00PM 40.4500 -73.9167 323° Northwest 258 297 3,000 -600 Descending New York TRACON
08:01PM 40.5167 -73.9500 339° North 224 258 2,000 -720 Descending New York TRACON
08:02PM 40.5667 -73.9333 14° North 169 194 1,600 -420 Descending New York TRACON